createdAt,value
2016-10-25T00:00:50.655Z,10.47
2016-10-25T00:01:50.020Z,10.47
2016-10-25T00:02:50.138Z,10.42
2016-10-25T00:03:50.179Z,10.45
2016-10-25T00:04:50.007Z,10.45
2016-10-25T00:05:51.503Z,10.44
2016-10-25T00:06:51.009Z,10.47
2016-10-25T00:07:50.246Z,10.44
2016-10-25T00:08:50.288Z,10.44
2016-10-25T00:09:50.223Z,10.48
2016-10-25T00:10:49.953Z,10.45
2016-10-25T00:11:49.941Z,10.41
2016-10-25T00:12:49.932Z,10.33
2016-10-25T00:13:49.923Z,10.47
2016-10-25T00:14:49.917Z,10.41
2016-10-25T00:15:49.917Z,10.45
2016-10-25T00:16:49.904Z,10.44
2016-10-25T00:17:49.898Z,10.45
2016-10-25T00:18:49.887Z,10.42
2016-10-25T00:19:49.883Z,10.42
2016-10-25T00:20:49.883Z,10.47
2016-10-25T00:21:49.869Z,10.59
2016-10-25T00:22:49.854Z,10.52
2016-10-25T00:23:49.849Z,10.55
2016-10-25T00:24:49.843Z,10.6
2016-10-25T00:25:49.839Z,10.59
2016-10-25T00:26:49.824Z,10.52
2016-10-25T00:27:49.812Z,10.48
2016-10-25T00:28:49.812Z,10.47
2016-10-25T00:29:50.113Z,10.56
2016-10-25T00:30:49.789Z,10.47
2016-10-25T00:31:49.784Z,10.42
2016-10-25T00:32:49.778Z,10.45
2016-10-25T00:33:49.772Z,10.36
2016-10-25T00:34:49.763Z,10.48
2016-10-25T00:35:49.757Z,10.42
2016-10-25T00:36:49.747Z,10.36
2016-10-25T00:37:49.740Z,10.3
2016-10-25T00:38:49.732Z,10.41
2016-10-25T00:39:50.020Z,10.41
2016-10-25T00:40:49.720Z,10.38
2016-10-25T00:41:49.702Z,10.47
2016-10-25T00:42:49.695Z,10.32
2016-10-25T00:43:49.699Z,10.3
2016-10-25T00:44:49.687Z,10.32
2016-10-25T00:45:49.672Z,10.33
2016-10-25T00:46:49.672Z,10.4
2016-10-25T00:47:49.674Z,10.4
2016-10-25T00:48:49.655Z,10.36
2016-10-25T00:49:51.148Z,10.38
2016-10-25T00:50:51.432Z,10.34
2016-10-25T00:51:49.628Z,10.36
2016-10-25T00:52:49.618Z,10.34
2016-10-25T00:53:50.365Z,10.33
2016-10-25T00:54:49.605Z,10.34
2016-10-25T00:55:49.595Z,10.34
2016-10-25T00:56:49.943Z,10.27
2016-10-25T00:57:49.609Z,10.38
2016-10-25T00:58:50.476Z,10.33
2016-10-25T00:59:50.667Z,10.3
2016-10-25T01:00:50.105Z,10.34
2016-10-25T01:02:49.847Z,10.32
2016-10-25T01:03:50.738Z,10.23
2016-10-25T01:04:49.530Z,10.23
2016-10-25T01:05:49.525Z,10.2
2016-10-25T01:06:49.514Z,10.26
2016-10-25T01:07:49.505Z,10.2
2016-10-25T01:08:49.494Z,10.18
2016-10-25T01:09:49.487Z,10.14
2016-10-25T01:10:49.482Z,10.15
2016-10-25T01:11:49.472Z,10.22
2016-10-25T01:12:49.462Z,10.11
2016-10-25T01:13:49.468Z,10.18
2016-10-25T01:14:50.022Z,10.22
2016-10-25T01:15:49.520Z,10.11
2016-10-25T01:16:51.046Z,10.18
2016-10-25T01:17:49.418Z,10.22
2016-10-25T01:18:49.419Z,10.22
2016-10-25T01:19:49.412Z,10.23
2016-10-25T01:20:50.063Z,10.25
2016-10-25T01:21:49.701Z,10.36
2016-10-25T01:22:49.390Z,10.32
2016-10-25T01:25:50.759Z,10.41
2016-10-25T01:26:49.653Z,10.38
2016-10-25T01:27:50.314Z,10.33
2016-10-25T01:28:49.335Z,10.44
2016-10-25T01:29:50.022Z,10.44
2016-10-25T01:30:49.319Z,10.45
2016-10-25T01:31:49.315Z,10.44
2016-10-25T01:32:49.312Z,10.44
2016-10-25T01:33:49.297Z,10.44
2016-10-25T01:34:49.592Z,10.48
2016-10-25T01:35:49.281Z,10.32
2016-10-25T01:36:49.270Z,10.36
2016-10-25T01:37:49.269Z,10.29
2016-10-25T01:38:49.577Z,10.33
2016-10-25T01:39:49.250Z,10.3
2016-10-25T01:40:49.246Z,10.41
2016-10-25T01:41:49.241Z,10.34
2016-10-25T01:42:49.228Z,10.38
2016-10-25T01:43:49.220Z,10.3
2016-10-25T01:44:49.213Z,10.25
2016-10-25T01:45:49.209Z,10.22
2016-10-25T01:46:49.205Z,10.26
2016-10-25T01:47:49.190Z,10.25
2016-10-25T01:48:49.178Z,10.25
2016-10-25T01:49:49.168Z,10.26
2016-10-25T01:50:49.167Z,10.18
2016-10-25T01:51:49.153Z,10.23
2016-10-25T01:52:49.146Z,10.3
2016-10-25T01:53:49.138Z,10.3
2016-10-25T01:54:49.131Z,10.26
2016-10-25T01:55:49.132Z,10.29
2016-10-25T01:56:49.115Z,10.4
2016-10-25T01:57:49.116Z,10.33
2016-10-25T01:58:49.101Z,10.32
2016-10-25T01:59:49.123Z,10.33
2016-10-25T02:00:49.079Z,10.33
2016-10-25T02:01:49.071Z,10.36
2016-10-25T02:02:49.067Z,10.23
2016-10-25T02:03:49.367Z,10.2
2016-10-25T02:04:49.058Z,10.23
2016-10-25T02:05:49.085Z,10.17
2016-10-25T02:06:49.034Z,10.23
2016-10-25T02:08:03.943Z,10.26
2016-10-25T02:08:49.826Z,10.22
2016-10-25T02:09:49.015Z,10.23
2016-10-25T02:10:49.204Z,10.18
2016-10-25T02:11:49.027Z,10.17
2016-10-25T02:12:50.041Z,10.18
2016-10-25T02:13:48.989Z,10.2
2016-10-25T02:14:48.975Z,10.2
2016-10-25T02:15:48.975Z,10.09
2016-10-25T02:16:48.965Z,10.09
2016-10-25T02:17:49.456Z,10.09
2016-10-25T02:18:49.547Z,10.09
2016-10-25T02:21:03.841Z,10.08
2016-10-25T02:21:49.276Z,10.07
2016-10-25T02:22:48.907Z,10.08
2016-10-25T02:23:48.900Z,10.14
2016-10-25T02:24:48.903Z,10.14
2016-10-25T02:25:48.895Z,10.14
2016-10-25T02:26:48.912Z,10.14
2016-10-25T02:27:48.875Z,10.09
2016-10-25T02:28:48.865Z,10.18
2016-10-25T02:29:48.855Z,10.23
2016-10-25T02:30:48.852Z,10.27
2016-10-25T02:31:48.848Z,10.14
2016-10-25T02:32:49.976Z,10.17
2016-10-25T02:34:50.029Z,10.09
2016-10-25T02:35:49.415Z,10.26
2016-10-25T02:36:48.802Z,10.22
2016-10-25T02:37:48.793Z,10.25
2016-10-25T02:38:48.788Z,10.17
2016-10-25T02:39:48.773Z,10.23
2016-10-25T02:40:48.767Z,10.17
2016-10-25T02:41:52.306Z,10.2
2016-10-25T02:42:49.531Z,10.2
2016-10-25T02:43:50.698Z,10.17
2016-10-25T02:44:50.385Z,10.2
2016-10-25T02:45:49.101Z,10.17
2016-10-25T02:46:48.721Z,10.18
2016-10-25T02:47:48.719Z,10.23
2016-10-25T02:48:48.703Z,10.2
2016-10-25T02:49:48.692Z,10.12
2016-10-25T02:50:48.688Z,10.11
2016-10-25T02:51:48.682Z,10.02
2016-10-25T02:52:48.673Z,10.09
2016-10-25T02:53:48.657Z,10.14
2016-10-25T02:54:48.652Z,10.09
2016-10-25T02:55:48.650Z,10.05
2016-10-25T02:56:48.639Z,10.02
2016-10-25T02:57:48.625Z,10.14
2016-10-25T02:58:48.624Z,10.01
2016-10-25T02:59:48.625Z,10.11
2016-10-25T03:00:48.606Z,10.05
2016-10-25T03:01:48.611Z,9.96
2016-10-25T03:02:48.585Z,10.04
2016-10-25T03:03:48.587Z,9.99
2016-10-25T03:04:48.575Z,10.02
2016-10-25T03:05:48.600Z,9.91
2016-10-25T03:06:48.559Z,9.99
2016-10-25T03:07:48.550Z,9.96
2016-10-25T03:08:48.537Z,10.01
2016-10-25T03:09:48.529Z,10.11
2016-10-25T03:10:48.523Z,10.12
2016-10-25T03:11:48.519Z,10.04
2016-10-25T03:12:48.506Z,10.12
2016-10-25T03:13:48.503Z,10.02
2016-10-25T03:14:48.489Z,10.15
2016-10-25T03:15:48.480Z,10.11
2016-10-25T03:16:48.816Z,10.12
2016-10-25T03:17:48.470Z,10.14
2016-10-25T03:18:48.455Z,9.99
2016-10-25T03:19:48.454Z,10.08
2016-10-25T03:20:48.439Z,10.04
2016-10-25T03:21:48.435Z,9.99
2016-10-25T03:22:48.422Z,9.96
2016-10-25T03:23:48.418Z,10.04
2016-10-25T03:24:48.406Z,9.96
2016-10-25T03:25:48.398Z,9.96
2016-10-25T03:27:03.959Z,10.02
2016-10-25T03:27:49.641Z,9.9
2016-10-25T03:28:48.877Z,9.93
2016-10-25T03:29:48.767Z,10.01
2016-10-25T03:30:48.364Z,10.01
2016-10-25T03:31:48.350Z,10.01
2016-10-25T03:32:48.349Z,9.99
2016-10-25T03:33:48.436Z,9.99
2016-10-25T03:34:48.332Z,9.99
2016-10-25T03:35:50.524Z,9.91
2016-10-25T03:36:48.523Z,9.96
2016-10-25T03:37:49.505Z,10.02
2016-10-25T03:38:48.299Z,9.99
2016-10-25T03:39:48.688Z,9.94
2016-10-25T03:40:48.824Z,9.94
2016-10-25T03:41:48.270Z,9.93
2016-10-25T03:42:48.263Z,9.97
2016-10-25T03:43:48.257Z,9.94
2016-10-25T03:44:48.291Z,9.91
2016-10-25T03:45:48.242Z,9.96
2016-10-25T03:46:48.232Z,9.93
2016-10-25T03:47:48.226Z,10.02
2016-10-25T03:48:48.218Z,9.93
2016-10-25T03:49:48.203Z,9.97
2016-10-25T03:50:48.211Z,10.02
2016-10-25T03:52:49.733Z,10.02
2016-10-25T03:53:49.967Z,10.02
2016-10-25T03:54:49.180Z,10.02
2016-10-25T03:55:48.234Z,10.02
2016-10-25T03:56:48.148Z,9.97
2016-10-25T03:57:48.142Z,9.97
2016-10-25T03:58:48.137Z,10.02
2016-10-25T03:59:48.134Z,9.99
2016-10-25T04:00:49.635Z,10.05
2016-10-25T04:01:49.132Z,9.97
2016-10-25T04:02:48.105Z,10.02
2016-10-25T04:03:48.096Z,9.91
2016-10-25T04:04:48.086Z,9.99
2016-10-25T04:05:48.715Z,9.93
2016-10-25T04:06:48.101Z,9.97
2016-10-25T04:07:48.063Z,10.02
2016-10-25T04:08:48.062Z,10.07
2016-10-25T04:09:48.044Z,9.91
2016-10-25T04:10:48.034Z,10.01
2016-10-25T04:11:48.068Z,9.99
2016-10-25T04:12:48.021Z,9.9
2016-10-25T04:13:48.015Z,9.99
2016-10-25T04:14:48.001Z,9.9
2016-10-25T04:15:47.990Z,9.9
2016-10-25T04:16:47.990Z,9.89
2016-10-25T04:17:47.979Z,9.96
2016-10-25T04:18:47.975Z,9.91
2016-10-25T04:19:47.964Z,9.99
2016-10-25T04:20:47.954Z,9.9
2016-10-25T04:21:47.948Z,9.94
2016-10-25T04:22:47.933Z,9.91
2016-10-25T04:23:47.931Z,9.99
2016-10-25T04:24:47.924Z,9.91
2016-10-25T04:25:48.257Z,9.91
2016-10-25T04:26:47.908Z,9.9
2016-10-25T04:27:47.897Z,9.94
2016-10-25T04:28:47.892Z,9.99
2016-10-25T04:29:47.876Z,9.91
2016-10-25T04:30:47.872Z,9.91
2016-10-25T04:31:47.863Z,9.91
2016-10-25T04:32:47.858Z,9.83
2016-10-25T04:33:47.851Z,9.89
2016-10-25T04:34:47.838Z,9.79
2016-10-25T04:35:47.828Z,9.83
2016-10-25T04:36:48.125Z,9.86
2016-10-25T04:37:47.810Z,9.87
2016-10-25T04:38:48.107Z,9.86
2016-10-25T04:39:47.797Z,9.84
2016-10-25T04:40:47.786Z,9.86
2016-10-25T04:41:48.085Z,9.87
2016-10-25T04:42:47.773Z,9.84
2016-10-25T04:43:47.763Z,10.02
2016-10-25T04:44:48.161Z,9.93
2016-10-25T04:45:48.253Z,10.02
2016-10-25T04:46:49.145Z,10.04
2016-10-25T04:47:48.587Z,10.12
2016-10-25T04:48:47.723Z,9.94
2016-10-25T04:49:47.724Z,10.01
2016-10-25T04:50:47.714Z,9.96
2016-10-25T04:51:47.700Z,10.04
2016-10-25T04:52:47.693Z,10.05
2016-10-25T04:53:51.345Z,9.96
2016-10-25T04:54:47.976Z,9.91
2016-10-25T04:55:48.573Z,10.02
2016-10-25T04:56:47.656Z,10.04
2016-10-25T04:57:47.854Z,10.02
2016-10-25T04:58:47.645Z,9.91
2016-10-25T04:59:47.640Z,9.91
2016-10-25T05:00:47.630Z,9.9
2016-10-25T05:01:47.618Z,9.83
2016-10-25T05:02:47.606Z,9.79
2016-10-25T05:03:47.605Z,9.84
2016-10-25T05:04:47.594Z,9.87
2016-10-25T05:05:47.596Z,9.84
2016-10-25T05:06:47.576Z,9.84
2016-10-25T05:07:47.569Z,9.84
2016-10-25T05:08:47.562Z,9.84
2016-10-25T05:09:48.641Z,9.89
2016-10-25T05:10:48.277Z,9.81
2016-10-25T05:11:47.852Z,9.81
2016-10-25T05:12:48.124Z,9.81
2016-10-25T05:13:48.328Z,9.81
2016-10-25T05:14:48.132Z,9.76
2016-10-25T05:15:47.503Z,9.81
2016-10-25T05:16:47.761Z,9.75
2016-10-25T05:17:47.787Z,9.79
2016-10-25T05:19:49.689Z,9.79
2016-10-25T05:20:48.408Z,9.87
2016-10-25T05:21:47.453Z,9.78
2016-10-25T05:22:48.001Z,9.81
2016-10-25T05:23:48.298Z,9.86
2016-10-25T05:24:47.702Z,9.86
2016-10-25T05:25:47.419Z,9.79
2016-10-25T05:26:47.420Z,9.89
2016-10-25T05:27:47.410Z,9.9
2016-10-25T05:28:47.401Z,9.97
2016-10-25T05:29:47.405Z,10.02
2016-10-25T05:30:47.391Z,9.99
2016-10-25T05:31:47.372Z,10.12
2016-10-25T05:32:47.363Z,9.99
2016-10-25T05:33:47.362Z,10.07
2016-10-25T05:34:47.352Z,9.96
2016-10-25T05:35:47.394Z,10.04
2016-10-25T05:36:47.348Z,9.97
2016-10-25T05:37:47.333Z,10.01
2016-10-25T05:38:47.320Z,10.07
2016-10-25T05:39:47.314Z,9.94
2016-10-25T05:40:47.300Z,10.01
2016-10-25T05:41:47.289Z,10.02
2016-10-25T05:42:47.583Z,9.94
2016-10-25T05:43:47.279Z,10.02
2016-10-25T05:44:47.267Z,9.97
2016-10-25T05:45:47.261Z,10.04
2016-10-25T05:46:47.252Z,9.97
2016-10-25T05:47:47.247Z,9.96
2016-10-25T05:48:47.237Z,9.99
2016-10-25T05:49:47.223Z,10.02
2016-10-25T05:50:47.221Z,9.94
2016-10-25T05:51:47.214Z,9.97
2016-10-25T05:52:47.205Z,9.99
2016-10-25T05:53:47.193Z,9.94
2016-10-25T05:54:47.186Z,9.93
2016-10-25T05:55:47.183Z,10.02
2016-10-25T05:56:47.477Z,10.01
2016-10-25T05:57:47.165Z,10.02
2016-10-25T05:58:47.158Z,10.01
2016-10-25T05:59:47.144Z,10.14
2016-10-25T06:00:47.132Z,10.09
2016-10-25T06:01:47.130Z,10.12
2016-10-25T06:03:02.036Z,10.18
2016-10-25T06:03:48.219Z,10.08
2016-10-25T06:04:47.606Z,10.07
2016-10-25T06:05:47.647Z,10.09
2016-10-25T06:06:47.390Z,10.07
2016-10-25T06:07:47.075Z,10.12
2016-10-25T06:08:47.472Z,10.09
2016-10-25T06:09:47.076Z,10.02
2016-10-25T06:10:47.053Z,10.07
2016-10-25T06:11:47.050Z,10.01
2016-10-25T06:12:47.842Z,10.05
2016-10-25T06:13:47.476Z,10.04
2016-10-25T06:14:47.468Z,9.97
2016-10-25T06:15:47.518Z,9.91
2016-10-25T06:16:47.762Z,9.87
2016-10-25T06:17:47.001Z,9.86
2016-10-25T06:18:47.169Z,9.84
2016-10-25T06:19:47.130Z,9.87
2016-10-25T06:20:46.974Z,9.81
2016-10-25T06:21:47.001Z,9.87
2016-10-25T06:22:47.264Z,9.87
2016-10-25T06:23:47.282Z,9.9
2016-10-25T06:24:47.254Z,9.76
2016-10-25T06:25:46.930Z,9.84
2016-10-25T06:26:46.922Z,9.84
2016-10-25T06:27:50.189Z,9.84
2016-10-25T06:28:47.206Z,9.9
2016-10-25T06:29:47.997Z,9.84
2016-10-25T06:30:47.277Z,9.83
2016-10-25T06:31:48.408Z,9.86
2016-10-25T06:32:46.878Z,9.87
2016-10-25T06:33:46.866Z,9.89
2016-10-25T06:34:46.863Z,9.87
2016-10-25T06:35:46.851Z,9.9
2016-10-25T06:36:48.437Z,10.01
2016-10-25T06:38:47.468Z,9.91
2016-10-25T06:39:47.177Z,9.99
2016-10-25T06:40:46.804Z,9.93
2016-10-25T06:41:47.142Z,9.91
2016-10-25T06:42:47.414Z,9.99
2016-10-25T06:43:47.011Z,10.02
2016-10-25T06:44:46.781Z,9.97
2016-10-25T06:45:46.767Z,9.96
2016-10-25T06:46:46.765Z,9.99
2016-10-25T06:47:46.760Z,10.05
2016-10-25T06:48:46.745Z,10.14
2016-10-25T06:49:46.740Z,10.11
2016-10-25T06:50:46.732Z,10.08
2016-10-25T06:51:46.722Z,10.11
2016-10-25T06:52:46.749Z,10.14
2016-10-25T06:53:46.703Z,10.11
2016-10-25T06:54:46.698Z,10.09
2016-10-25T06:55:46.690Z,10.04
2016-10-25T06:56:46.677Z,10.01
2016-10-25T06:57:46.684Z,10.11
2016-10-25T06:58:46.662Z,10.12
2016-10-25T06:59:46.660Z,10.2
2016-10-25T07:00:46.654Z,10.18
2016-10-25T07:01:46.643Z,10.22
2016-10-25T07:02:46.634Z,10.29
2016-10-25T07:03:46.652Z,10.27
2016-10-25T07:04:46.615Z,10.29
2016-10-25T07:05:46.609Z,10.4
2016-10-25T07:06:46.593Z,10.33
2016-10-25T07:07:46.592Z,10.29
2016-10-25T07:08:46.584Z,10.27
2016-10-25T07:09:46.572Z,10.32
2016-10-25T07:10:46.576Z,10.34
2016-10-25T07:11:46.560Z,10.32
2016-10-25T07:12:46.550Z,10.3
2016-10-25T07:13:46.556Z,10.3
2016-10-25T07:14:46.536Z,10.32
2016-10-25T07:15:46.566Z,10.3
2016-10-25T07:16:46.549Z,10.26
2016-10-25T07:17:46.520Z,10.2
2016-10-25T07:18:46.534Z,10.32
2016-10-25T07:19:46.500Z,10.34
2016-10-25T07:20:46.491Z,10.34
2016-10-25T07:21:47.934Z,10.27
2016-10-25T07:22:47.776Z,10.32
2016-10-25T07:23:46.667Z,10.27
2016-10-25T07:24:47.718Z,10.3
2016-10-25T07:25:46.452Z,10.41
2016-10-25T07:26:46.447Z,10.55
2016-10-25T07:27:46.437Z,10.67
2016-10-25T07:28:46.580Z,10.56
2016-10-25T07:29:46.417Z,10.66
2016-10-25T07:31:01.832Z,10.66
2016-10-25T07:31:47.199Z,10.64
2016-10-25T07:33:46.390Z,10.7
2016-10-25T07:34:46.883Z,10.66
2016-10-25T07:35:46.523Z,10.67
2016-10-25T07:36:46.363Z,10.67
2016-10-25T07:37:46.820Z,10.63
2016-10-25T07:38:46.351Z,10.61
2016-10-25T07:39:46.350Z,10.59
2016-10-25T07:40:46.336Z,10.66
2016-10-25T07:41:46.330Z,10.64
2016-10-25T07:42:46.324Z,10.66
2016-10-25T07:43:46.316Z,10.68
2016-10-25T07:44:46.307Z,10.76
2016-10-25T07:46:46.640Z,10.59
2016-10-25T07:47:48.706Z,10.55
2016-10-25T07:48:46.282Z,10.6
2016-10-25T07:49:46.274Z,10.55
2016-10-25T07:50:46.294Z,10.6
2016-10-25T07:51:46.259Z,10.59
2016-10-25T07:52:46.251Z,10.51
2016-10-25T07:53:46.247Z,10.53
2016-10-25T07:54:46.231Z,10.6
2016-10-25T07:55:47.745Z,10.61
2016-10-25T07:56:48.809Z,10.63
2016-10-25T07:57:46.337Z,10.68
2016-10-25T07:58:47.075Z,10.68
2016-10-25T07:59:46.641Z,10.68
2016-10-25T08:00:46.222Z,10.79
2016-10-25T08:01:46.183Z,10.84
2016-10-25T08:02:46.173Z,10.88
2016-10-25T08:03:46.164Z,10.86
2016-10-25T08:04:46.162Z,11.04
2016-10-25T08:05:46.449Z,10.94
2016-10-25T08:06:46.153Z,10.92
2016-10-25T08:07:46.139Z,11.04
2016-10-25T08:08:46.135Z,11.04
2016-10-25T08:09:46.129Z,10.94
2016-10-25T08:10:46.117Z,11
2016-10-25T08:11:46.115Z,10.97
2016-10-25T08:12:46.097Z,11.03
2016-10-25T08:13:46.095Z,11.07
2016-10-25T08:14:46.093Z,11
2016-10-25T08:15:46.086Z,10.89
2016-10-25T08:16:46.118Z,10.89
2016-10-25T08:17:46.064Z,10.86
2016-10-25T08:18:46.362Z,11.07
2016-10-25T08:19:46.050Z,11.09
2016-10-25T08:20:46.041Z,11.11
2016-10-25T08:21:46.041Z,11.28
2016-10-25T08:22:46.038Z,11.18
2016-10-25T08:23:46.022Z,11.28
2016-10-25T08:24:46.013Z,11.29
2016-10-25T08:25:46.012Z,11.27
2016-10-25T08:26:45.996Z,11.37
2016-10-25T08:27:45.993Z,11.51
2016-10-25T08:28:45.989Z,11.67
2016-10-25T08:29:45.978Z,11.72
2016-10-25T08:30:46.010Z,11.79
2016-10-25T08:31:45.968Z,11.86
2016-10-25T08:32:46.081Z,11.83
2016-10-25T08:33:45.958Z,11.91
2016-10-25T08:34:45.950Z,11.91
2016-10-25T08:35:45.940Z,11.98
2016-10-25T08:36:45.936Z,11.96
2016-10-25T08:37:45.928Z,12.02
2016-10-25T08:38:45.921Z,11.98
2016-10-25T08:40:01.358Z,12.01
2016-10-25T08:40:46.059Z,11.99
2016-10-25T08:43:45.883Z,11.91
2016-10-25T08:44:45.877Z,11.88
2016-10-25T08:45:45.878Z,11.86
2016-10-25T08:46:46.174Z,11.95
2016-10-25T08:47:45.857Z,11.96
2016-10-25T08:49:00.765Z,12.02
2016-10-25T08:49:46.901Z,12.04
2016-10-25T08:51:01.608Z,12.07
2016-10-25T08:51:46.480Z,12.07
2016-10-25T08:53:45.852Z,12.05
2016-10-25T08:54:45.817Z,12.12
2016-10-25T08:55:45.813Z,12.14
2016-10-25T08:56:45.804Z,12.16
2016-10-25T08:57:45.793Z,12.32
2016-10-25T08:58:45.784Z,12.29
2016-10-25T08:59:45.781Z,12.39
2016-10-25T09:00:45.774Z,12.46
2016-10-25T09:01:45.771Z,12.65
2016-10-25T09:02:45.770Z,12.67
2016-10-25T09:03:45.765Z,12.77
2016-10-25T09:04:47.064Z,12.78
2016-10-25T09:05:46.594Z,12.74
2016-10-25T09:06:46.064Z,12.72
2016-10-25T09:07:46.338Z,12.75
2016-10-25T09:08:46.419Z,12.65
2016-10-25T09:09:46.038Z,12.65
2016-10-25T09:10:45.716Z,12.68
2016-10-25T09:11:45.747Z,12.82
2016-10-25T09:12:45.711Z,12.85
2016-10-25T09:13:49.782Z,13
2016-10-25T09:14:46.026Z,13.15
2016-10-25T09:15:46.097Z,13.29
2016-10-25T09:16:46.816Z,13.45
2016-10-25T09:17:45.674Z,13.62
2016-10-25T09:18:45.669Z,13.6
2016-10-25T09:19:45.675Z,13.77
2016-10-25T09:20:45.660Z,13.84
2016-10-25T09:21:45.767Z,13.88
2016-10-25T09:22:45.652Z,13.66
2016-10-25T09:23:45.649Z,13.66
2016-10-25T09:24:45.640Z,13.54
2016-10-25T09:25:45.642Z,13.62
2016-10-25T09:26:45.635Z,13.57
2016-10-25T09:27:45.636Z,13.52
2016-10-25T09:28:45.631Z,13.39
2016-10-25T09:29:45.621Z,13.52
2016-10-25T09:30:45.623Z,13.57
2016-10-25T09:31:45.613Z,13.66
2016-10-25T09:32:45.613Z,13.79
2016-10-25T09:33:45.601Z,13.87
2016-10-25T09:34:45.642Z,13.87
2016-10-25T09:35:45.632Z,13.91
2016-10-25T09:36:45.591Z,13.88
2016-10-25T09:37:45.595Z,13.89
2016-10-25T09:38:45.579Z,13.97
2016-10-25T09:39:45.574Z,14.03
2016-10-25T09:40:45.580Z,14.03
2016-10-25T09:41:45.568Z,14.06
2016-10-25T09:42:45.570Z,14.06
2016-10-25T09:43:45.586Z,14.14
2016-10-25T09:44:45.555Z,14.15
2016-10-25T09:45:45.555Z,14.25
2016-10-25T09:46:45.547Z,14.22
2016-10-25T09:47:45.542Z,14.04
2016-10-25T09:48:45.541Z,14.07
2016-10-25T09:49:45.537Z,13.85
2016-10-25T09:50:45.531Z,13.82
2016-10-25T09:51:45.530Z,13.89
2016-10-25T09:52:45.520Z,13.82
2016-10-25T09:53:45.533Z,13.75
2016-10-25T09:54:45.513Z,13.77
2016-10-25T09:55:45.512Z,13.77
2016-10-25T09:56:45.515Z,13.85
2016-10-25T09:59:00.409Z,13.67
2016-10-25T09:59:46.102Z,13.64
2016-10-25T10:01:00.654Z,13.66
2016-10-25T10:01:47.087Z,13.71
2016-10-25T10:02:46.030Z,13.75
2016-10-25T10:03:45.674Z,13.88
2016-10-25T10:04:45.471Z,13.85
2016-10-25T10:05:45.468Z,13.88
2016-10-25T10:06:45.461Z,13.87
2016-10-25T10:09:45.445Z,14.03
2016-10-25T10:10:46.129Z,14.1
2016-10-25T10:11:45.780Z,14.17
2016-10-25T10:12:45.445Z,14.22
2016-10-25T10:13:45.435Z,14.45
2016-10-25T10:14:45.429Z,14.6
2016-10-25T10:15:45.440Z,14.54
2016-10-25T10:16:45.421Z,14.64
2016-10-25T10:17:45.717Z,14.69
2016-10-25T10:18:45.431Z,14.62
2016-10-25T10:19:45.411Z,14.65
2016-10-25T10:20:45.714Z,14.75
2016-10-25T10:21:45.399Z,14.55
2016-10-25T10:22:46.005Z,14.62
2016-10-25T10:23:46.761Z,14.45
2016-10-25T10:24:45.977Z,14.51
2016-10-25T10:25:45.381Z,14.4
2016-10-25T10:26:45.378Z,14.29
2016-10-25T10:27:45.378Z,14.25
2016-10-25T10:28:45.375Z,14.2
2016-10-25T10:29:45.368Z,14.17
2016-10-25T10:30:45.373Z,14.18
2016-10-25T10:31:46.910Z,14.18
2016-10-25T10:32:46.240Z,14.2
2016-10-25T10:33:46.079Z,14.15
2016-10-25T10:34:46.246Z,14.12
2016-10-25T10:35:45.532Z,14.1
2016-10-25T10:36:46.072Z,14
2016-10-25T10:37:45.331Z,13.82
2016-10-25T10:38:45.623Z,13.87
2016-10-25T10:39:45.340Z,13.97
2016-10-25T10:40:45.319Z,14.03
2016-10-25T10:41:45.310Z,14.03
2016-10-25T10:42:45.310Z,13.99
2016-10-25T10:43:45.308Z,14.09
2016-10-25T10:44:45.303Z,14.04
2016-10-25T10:45:45.294Z,14.18
2016-10-25T10:46:45.294Z,14.18
2016-10-25T10:47:45.286Z,14.2
2016-10-25T10:48:45.287Z,14.25
2016-10-25T10:49:45.276Z,14.32
2016-10-25T10:50:45.277Z,14.28
2016-10-25T10:51:45.269Z,14.29
2016-10-25T10:52:45.267Z,14.21
2016-10-25T10:53:45.268Z,14.24
2016-10-25T10:54:45.261Z,14.25
2016-10-25T10:55:45.285Z,14.21
2016-10-25T10:56:45.252Z,14.21
2016-10-25T10:57:45.254Z,14.21
2016-10-25T10:58:45.246Z,14.2
2016-10-25T10:59:45.238Z,14.18
2016-10-25T11:00:45.239Z,14.17
2016-10-25T11:01:45.225Z,14.2
2016-10-25T11:02:45.218Z,14.1
2016-10-25T11:03:45.219Z,14.09
2016-10-25T11:04:45.306Z,13.96
2016-10-25T11:05:45.206Z,13.88
2016-10-25T11:06:45.209Z,13.91
2016-10-25T11:07:45.199Z,13.81
2016-10-25T11:08:45.189Z,13.87
2016-10-25T11:09:45.189Z,13.69
2016-10-25T11:10:45.182Z,13.54
2016-10-25T11:11:45.175Z,13.45
2016-10-25T11:12:45.174Z,13.38
2016-10-25T11:13:45.176Z,13.39
2016-10-25T11:14:45.164Z,13.17
2016-10-25T11:15:45.155Z,13.25
2016-10-25T11:16:46.752Z,13.25
2016-10-25T11:18:45.148Z,13.19
2016-10-25T11:19:46.023Z,13.28
2016-10-25T11:20:45.184Z,13.22
2016-10-25T11:21:45.129Z,13.22
2016-10-25T11:22:45.118Z,13.14
2016-10-25T11:23:45.222Z,13.17
2016-10-25T11:24:45.420Z,13.12
2016-10-25T11:25:45.758Z,13.19
2016-10-25T11:26:46.363Z,13.12
2016-10-25T11:27:45.743Z,13.01
2016-10-25T11:28:45.545Z,12.78
2016-10-25T11:29:45.641Z,12.72
2016-10-25T11:30:45.085Z,12.7
2016-10-25T11:31:45.225Z,12.52
2016-10-25T11:32:45.373Z,12.46
2016-10-25T11:33:45.065Z,12.46
2016-10-25T11:34:45.063Z,12.46
2016-10-25T11:35:45.054Z,12.45
2016-10-25T11:36:45.063Z,12.49
2016-10-25T11:37:45.045Z,12.5
2016-10-25T11:38:45.037Z,12.47
2016-10-25T11:39:45.033Z,12.45
2016-10-25T11:40:46.543Z,12.45
2016-10-25T11:42:45.659Z,12.57
2016-10-25T11:43:45.950Z,12.68
2016-10-25T11:44:45.098Z,12.67
2016-10-25T11:45:45.002Z,12.67
2016-10-25T11:46:45.004Z,12.74
2016-10-25T11:47:45.253Z,12.77
2016-10-25T11:48:44.975Z,12.77
2016-10-25T11:49:44.987Z,12.87
2016-10-25T11:51:45.702Z,12.85
2016-10-25T11:52:46.474Z,12.87
2016-10-25T11:53:46.054Z,12.95
2016-10-25T11:54:45.611Z,12.85
2016-10-25T11:55:44.952Z,12.83
2016-10-25T11:56:45.345Z,12.82
2016-10-25T11:57:45.129Z,12.86
2016-10-25T11:58:44.931Z,12.82
2016-10-25T11:59:44.925Z,12.85
2016-10-25T12:00:44.923Z,12.83
2016-10-25T12:01:44.903Z,12.87
2016-10-25T12:02:45.200Z,12.82
2016-10-25T12:03:44.898Z,12.83
2016-10-25T12:04:44.886Z,12.82
2016-10-25T12:05:45.198Z,12.78
2016-10-25T12:06:44.885Z,12.71
2016-10-25T12:07:44.881Z,12.72
2016-10-25T12:08:44.871Z,12.7
2016-10-25T12:09:44.866Z,12.68
2016-10-25T12:10:44.867Z,12.67
2016-10-25T12:11:44.848Z,12.54
2016-10-25T12:12:44.846Z,12.5
2016-10-25T12:13:44.832Z,12.5
2016-10-25T12:14:44.869Z,12.47
2016-10-25T12:15:44.834Z,12.47
2016-10-25T12:16:44.827Z,12.62
2016-10-25T12:17:44.828Z,12.54
2016-10-25T12:18:44.812Z,12.6
2016-10-25T12:19:44.802Z,12.6
2016-10-25T12:20:44.797Z,12.6
2016-10-25T12:21:44.795Z,12.6
2016-10-25T12:22:44.792Z,12.56
2016-10-25T12:23:45.085Z,12.67
2016-10-25T12:24:44.778Z,12.68
2016-10-25T12:25:44.770Z,12.68
2016-10-25T12:26:44.762Z,12.64
2016-10-25T12:27:44.764Z,12.64
2016-10-25T12:28:44.753Z,12.6
2016-10-25T12:29:44.744Z,12.62
2016-10-25T12:30:44.748Z,12.56
2016-10-25T12:31:44.734Z,12.62
2016-10-25T12:32:44.722Z,12.65
2016-10-25T12:33:44.724Z,12.62
2016-10-25T12:37:45.844Z,12.62
2016-10-25T12:38:44.788Z,12.71
2016-10-25T12:39:45.697Z,12.65
2016-10-25T12:40:44.678Z,12.68
2016-10-25T12:41:44.677Z,12.59
2016-10-25T12:42:44.669Z,12.64
2016-10-25T12:43:45.306Z,12.56
2016-10-25T12:45:45.147Z,12.49
2016-10-25T12:46:45.199Z,12.42
2016-10-25T12:47:44.639Z,12.49
2016-10-25T12:48:45.083Z,12.49
2016-10-25T12:49:44.620Z,12.57
2016-10-25T12:50:44.625Z,12.59
2016-10-25T12:51:44.614Z,12.65
2016-10-25T12:52:44.611Z,12.7
2016-10-25T12:53:44.603Z,12.78
2016-10-25T12:54:44.600Z,12.85
2016-10-25T12:55:44.590Z,12.87
2016-10-25T12:56:44.597Z,12.86
2016-10-25T12:57:44.576Z,12.93
2016-10-25T12:58:44.577Z,12.86
2016-10-25T12:59:48.022Z,12.86
2016-10-25T13:00:47.257Z,12.86
2016-10-25T13:01:45.282Z,12.85
2016-10-25T13:02:46.453Z,12.83
2016-10-25T13:03:44.548Z,12.87
2016-10-25T13:04:44.544Z,12.87
2016-10-25T13:05:44.528Z,12.85
2016-10-25T13:06:44.581Z,12.9
2016-10-25T13:07:44.528Z,12.9
2016-10-25T13:09:47.109Z,13.04
2016-10-25T13:10:45.584Z,13
2016-10-25T13:11:44.507Z,12.95
2016-10-25T13:12:44.748Z,12.89
2016-10-25T13:13:44.786Z,13
2016-10-25T13:14:44.488Z,13.03
2016-10-25T13:15:44.687Z,13.05
2016-10-25T13:16:44.478Z,13.03
2016-10-25T13:17:44.466Z,13.03
2016-10-25T13:18:44.462Z,13.01
2016-10-25T13:19:44.454Z,13.04
2016-10-25T13:20:44.452Z,13.04
2016-10-25T13:21:44.449Z,13.03
2016-10-25T13:22:44.434Z,13.04
2016-10-25T13:23:44.454Z,12.92
2016-10-25T13:24:44.483Z,12.87